Time;durP1;ratioP1;P1;durP2;ratioP2;P2;SDS_P1;SDS_P2;PMS_P1;PMS_P2;Temp;Humidity;BMP_temperature;BMP_pressure;BME280_temperature;BME280_humidity;BME280_pressure;Samples;Min_cycle;Max_cycle;Signal;HPM_P1;HPM_P2
2022/05/21 00:00:19;;;;;;;19.52;13.38;;;;;;;10.69;89.79;101923.06;4967431;28;20766;-52
2022/05/21 00:02:44;;;;;;;17.80;12.98;;;;;;;10.71;89.24;101918.47;4967366;28;20030;-51
2022/05/21 00:05:10;;;;;;;17.52;12.40;;;;;;;10.74;89.63;101921.66;4964309;28;20030;-53
2022/05/21 00:07:35;;;;;;;17.85;12.90;;;;;;;10.78;89.00;101922.22;4966703;28;20069;-54
2022/05/21 00:10:00;;;;;;;20.02;12.77;;;;;;;10.82;89.23;101920.94;4966847;28;20030;-54
2022/05/21 00:12:26;;;;;;;20.17;12.70;;;;;;;10.84;89.17;101925.13;4965569;28;20039;-53
2022/05/21 00:14:52;;;;;;;15.05;12.02;;;;;;;10.85;89.19;101920.63;4967324;28;20030;-52
2022/05/21 00:17:19;;;;;;;14.98;12.50;;;;;;;10.88;89.06;101923.00;4967533;28;20518;-52
2022/05/21 00:19:44;;;;;;;17.75;12.80;;;;;;;10.91;89.28;101927.19;4967642;28;20072;-53
2022/05/21 00:22:09;;;;;;;18.88;12.55;;;;;;;10.92;88.72;101921.72;4966575;28;20484;-54
2022/05/21 00:24:35;;;;;;;15.07;12.05;;;;;;;10.94;89.17;101926.88;4967860;28;20534;-54
2022/05/21 00:27:00;;;;;;;17.95;11.88;;;;;;;10.96;89.24;101919.59;4967395;28;20089;-54
2022/05/21 00:29:28;;;;;;;20.13;11.93;;;;;;;10.98;89.22;101928.25;4959776;28;20031;-52
2022/05/21 00:31:54;;;;;;;21.88;11.65;;;;;;;10.99;88.81;101917.53;4964846;28;20026;-55
2022/05/21 00:34:19;;;;;;;16.73;11.80;;;;;;;11.02;88.94;101919.03;4967132;28;20433;-55
2022/05/21 00:36:45;;;;;;;16.58;11.90;;;;;;;11.02;89.08;101916.38;4966324;28;20174;-52
2022/05/21 00:39:10;;;;;;;15.93;11.68;;;;;;;11.04;88.52;101919.72;4964930;28;20023;-54
2022/05/21 00:41:36;;;;;;;16.23;11.50;;;;;;;11.05;88.78;101918.75;4966334;28;20030;-55
2022/05/21 00:44:03;;;;;;;13.13;10.60;;;;;;;11.05;88.59;101929.38;4965658;28;20034;-54
2022/05/21 00:46:38;;;;;;;15.05;10.50;;;;;;;11.05;88.64;101926.72;4964969;28;20031;-51
2022/05/21 00:49:03;;;;;;;16.63;11.13;;;;;;;11.05;88.54;101921.41;4965249;28;20121;-55
2022/05/21 00:51:31;;;;;;;14.50;10.32;;;;;;;11.03;88.61;101926.88;4966851;28;20175;-54
2022/05/21 00:54:00;;;;;;;15.60;10.48;;;;;;;11.04;88.52;101938.34;4966793;28;20029;-54
2022/05/21 00:56:29;;;;;;;15.20;10.07;;;;;;;11.03;88.69;101937.50;4967092;28;20034;-53
2022/05/21 01:01:43;;;;;;;16.58;10.10;;;;;;;11.02;88.73;101925.19;4964684;28;20041;-52
2022/05/21 01:04:08;;;;;;;13.55;9.35;;;;;;;11.04;88.71;101923.22;4964518;28;20105;-54
2022/05/21 01:06:35;;;;;;;20.05;10.13;;;;;;;11.07;88.81;101922.94;4965873;28;20161;-55
2022/05/21 01:09:01;;;;;;;17.20;10.05;;;;;;;11.09;88.56;101912.97;4965024;28;20047;-54
2022/05/21 01:11:27;;;;;;;16.20;9.70;;;;;;;11.11;88.63;101923.47;4965312;28;20062;-52
2022/05/21 01:13:52;;;;;;;13.35;8.57;;;;;;;11.12;88.64;101917.16;4967522;28;20054;-51
2022/05/21 01:16:18;;;;;;;14.60;9.20;;;;;;;11.14;88.47;101918.69;4964637;28;20468;-51
2022/05/21 01:18:43;;;;;;;15.77;8.77;;;;;;;11.14;88.48;101918.69;4964293;28;20041;-54
2022/05/21 01:21:09;;;;;;;11.38;8.15;;;;;;;11.17;88.32;101920.22;4965998;28;20027;-51
2022/05/21 01:23:35;;;;;;;15.02;9.20;;;;;;;11.17;88.10;101920.22;4965208;28;20072;-54
2022/05/21 01:26:04;;;;;;;15.43;8.57;;;;;;;11.19;88.04;101910.25;4965619;28;20026;-52
2022/05/21 01:28:32;;;;;;;12.93;8.40;;;;;;;11.18;88.23;101913.91;4966362;28;20043;-53
2022/05/21 01:31:00;;;;;;;17.00;8.27;;;;;;;11.18;87.82;101912.09;4965923;28;20045;-55
2022/05/21 01:33:29;;;;;;;17.45;8.77;;;;;;;11.19;87.91;101918.25;4965169;28;20078;-54
2022/05/21 01:35:54;;;;;;;;;;;;;;;11.22;88.14;101919.75;4968128;28;20027;-54
2022/05/21 01:38:21;;;;;;;13.07;8.43;;;;;;;11.20;87.75;101919.91;4961356;28;19921;-54
2022/05/21 01:40:47;;;;;;;16.50;8.50;;;;;;;11.21;87.97;101910.94;4965524;28;20473;-53
2022/05/21 01:45:57;;;;;;;12.30;8.35;;;;;;;11.22;87.93;101909.13;4966982;28;20093;-54
2022/05/21 01:48:26;;;;;;;12.18;8.13;;;;;;;11.23;88.27;101916.13;4963906;28;20235;-54
2022/05/21 01:50:52;;;;;;;14.90;7.88;;;;;;;11.23;87.97;101916.13;4965185;28;20019;-55
2022/05/21 01:53:20;;;;;;;15.18;7.80;;;;;;;11.23;87.60;101913.47;4965814;28;20038;-52
2022/05/21 01:55:46;;;;;;;15.50;8.13;;;;;;;11.24;88.23;101920.44;4967411;28;20042;-53
2022/05/21 01:58:12;;;;;;;15.25;7.50;;;;;;;11.24;87.90;101913.31;4964871;28;20072;-51
2022/05/21 02:00:38;;;;;;;10.50;7.32;;;;;;;11.25;87.83;101922.13;4965916;28;20023;-53
2022/05/21 02:03:03;;;;;;;14.75;7.85;;;;;;;11.25;88.02;101914.97;4965574;28;20463;-52
2022/05/21 02:05:28;;;;;;;16.00;7.78;;;;;;;11.25;88.13;101907.00;4963454;28;20027;-53
2022/05/21 02:07:54;;;;;;;17.02;8.82;;;;;;;11.26;88.02;101911.34;4964690;28;20023;-52
2022/05/21 02:10:19;;;;;;;14.98;8.02;;;;;;;11.27;87.92;101909.50;4965503;28;20033;-53
2022/05/21 02:12:44;;;;;;;19.33;9.23;;;;;;;11.27;88.43;101918.31;4967120;28;20361;-53
2022/05/21 02:15:10;;;;;;;19.48;8.65;;;;;;;11.29;88.48;101919.03;4965044;28;20015;-53
2022/05/21 02:17:36;;;;;;;16.60;9.40;;;;;;;11.31;88.21;101922.38;4964972;28;20026;-53
2022/05/21 02:20:02;;;;;;;16.88;10.40;;;;;;;11.32;88.19;101920.56;4970081;28;20473;-53
2022/05/21 02:22:27;;;;;;;19.92;10.70;;;;;;;11.32;88.79;101923.22;4968351;28;20054;-55
2022/05/21 02:24:53;;;;;;;20.02;11.00;;;;;;;11.32;88.79;101929.38;4968705;28;20037;-52
2022/05/21 02:27:18;;;;;;;19.60;10.98;;;;;;;11.33;88.94;101928.41;4968350;28;20035;-53
2022/05/21 02:29:44;;;;;;;23.13;11.57;;;;;;;11.36;88.71;101927.25;4967209;28;20424;-53
2022/05/21 02:32:12;;;;;;;20.25;11.18;;;;;;;11.37;89.19;101921.78;4968176;28;20022;-52
2022/05/21 02:34:39;;;;;;;19.43;11.80;;;;;;;11.37;88.77;101916.47;4970700;28;20036;-51
2022/05/21 02:39:48;;;;;;;19.63;12.82;;;;;;;11.41;88.91;101909.84;4970102;28;21802;-52
2022/05/21 02:44:57;;;;;;;25.33;14.55;;;;;;;11.44;88.95;101914.88;4966461;28;20169;-55
2022/05/21 02:47:24;;;;;;;20.58;13.20;;;;;;;11.47;88.76;101905.75;4967990;28;20475;-51
2022/05/21 02:49:49;;;;;;;26.45;14.13;;;;;;;11.48;89.29;101915.41;4968060;28;20081;-53
2022/05/21 02:52:17;;;;;;;23.80;13.90;;;;;;;11.49;89.12;101917.91;4970736;28;20031;-51
2022/05/21 02:54:43;;;;;;;21.17;14.23;;;;;;;11.50;88.74;101918.75;4968738;28;20026;-52
2022/05/21 02:57:09;;;;;;;25.92;14.23;;;;;;;11.53;88.70;101922.94;4963978;28;20036;-54
2022/05/21 02:59:36;;;;;;;26.30;14.15;;;;;;;11.55;89.02;101928.94;4969409;28;20030;-51
2022/05/21 03:02:02;;;;;;;27.25;14.80;;;;;;;11.56;89.06;101918.16;4967868;28;20109;-54
2022/05/21 03:04:28;;;;;;;25.95;14.43;;;;;;;11.56;89.05;101926.13;4971227;28;20516;-54
2022/05/21 03:06:53;;;;;;;26.08;14.13;;;;;;;11.58;89.09;101920.69;4964831;28;20440;-52
2022/05/21 03:12:02;;;;;;;25.85;15.07;;;;;;;11.60;88.55;101926.69;4966009;28;20037;-54
2022/05/21 03:14:27;;;;;;;29.55;15.05;;;;;;;11.61;88.85;101923.03;4968726;28;20031;-51
2022/05/21 03:16:59;;;;;;;24.52;13.68;;;;;;;11.62;88.75;101919.41;4975495;28;20110;-51
2022/05/21 03:19:24;;;;;;;24.65;14.60;;;;;;;11.63;88.88;101921.91;4970523;28;20018;-54
2022/05/21 03:21:49;;;;;;;29.98;15.00;;;;;;;11.63;88.50;101919.25;4971437;28;20050;-54
2022/05/21 03:24:15;;;;;;;26.27;14.88;;;;;;;11.63;88.67;101910.41;4971777;28;20070;-52
2022/05/21 03:26:40;;;;;;;29.42;15.32;;;;;;;11.63;88.51;101905.94;4971026;28;20031;-53
2022/05/21 03:29:05;;;;;;;23.63;14.52;;;;;;;11.64;88.92;101917.41;4970184;28;20054;-55
2022/05/21 03:31:31;;;;;;;27.52;16.00;;;;;;;11.66;88.64;101923.41;4966973;28;20511;-53
2022/05/21 03:33:56;;;;;;;24.35;15.05;;;;;;;11.66;89.01;101920.75;4971135;28;20135;-53
2022/05/21 03:36:21;;;;;;;25.25;14.68;;;;;;;11.67;88.60;101915.28;4970725;28;20022;-54
2022/05/21 03:38:47;;;;;;;29.30;15.40;;;;;;;11.71;88.67;101914.00;4970678;28;20077;-54
2022/05/21 03:41:12;;;;;;;29.60;15.57;;;;;;;11.70;89.15;101914.16;4970877;28;20018;-53
2022/05/21 03:43:37;;;;;;;31.30;15.52;;;;;;;11.70;89.21;101919.47;4970583;28;20023;-54
2022/05/21 03:46:04;;;;;;;29.55;15.80;;;;;;;11.72;89.03;101928.97;4970113;28;20444;-54
2022/05/21 03:48:29;;;;;;;31.38;15.75;;;;;;;11.72;89.03;101926.31;4970403;28;20030;-52
2022/05/21 03:50:54;;;;;;;31.27;16.15;;;;;;;11.72;88.97;101922.81;4971227;28;20035;-53
2022/05/21 03:53:20;;;;;;;28.40;15.95;;;;;;;11.73;89.08;101930.63;4971445;28;20031;-53
2022/05/21 03:55:45;;;;;;;30.38;16.13;;;;;;;11.75;88.95;101933.97;4969989;28;20023;-52
2022/05/21 03:58:13;;;;;;;30.95;15.95;;;;;;;11.77;89.14;101932.00;4964820;28;20424;-52
2022/05/21 04:00:39;;;;;;;34.35;16.02;;;;;;;11.79;88.90;101934.53;4967816;28;20133;-53
2022/05/21 04:03:04;;;;;;;29.73;15.88;;;;;;;11.83;88.87;101943.06;4968887;28;20042;-52
2022/05/21 04:05:30;;;;;;;32.80;16.10;;;;;;;11.82;89.25;101931.56;4968009;28;20023;-53
2022/05/21 04:07:56;;;;;;;29.50;15.70;;;;;;;11.83;88.72;101941.22;4967965;28;20031;-54
2022/05/21 04:10:21;;;;;;;29.75;15.70;;;;;;;11.84;89.06;101932.25;4968500;28;20031;-54
2022/05/21 04:12:47;;;;;;;33.10;16.33;;;;;;;11.84;88.66;101945.56;4966138;28;20451;-52
2022/05/21 04:15:13;;;;;;;33.65;15.93;;;;;;;11.87;88.95;101939.97;4966402;28;20027;-52
2022/05/21 04:17:38;;;;;;;33.92;16.10;;;;;;;11.87;88.88;101945.28;4967477;28;20031;-54
2022/05/21 04:20:08;;;;;;;31.92;15.82;;;;;;;11.90;88.96;101955.63;4968641;28;20018;-52
2022/05/21 04:22:33;;;;;;;35.38;15.82;;;;;;;11.88;88.77;101946.97;4964030;28;20019;-52
2022/05/21 04:24:58;;;;;;;28.77;15.65;;;;;;;11.87;88.70;101957.75;4966999;28;20050;-52
2022/05/21 04:27:24;;;;;;;34.75;15.65;;;;;;;11.87;88.81;101945.28;4964969;28;20054;-51
2022/05/21 04:29:49;;;;;;;29.25;14.77;;;;;;;11.88;88.60;101954.94;4965766;28;20031;-53
2022/05/21 04:32:14;;;;;;;25.88;14.02;;;;;;;11.88;88.75;101956.78;4967967;28;20053;-51
2022/05/21 04:34:40;;;;;;;34.60;14.57;;;;;;;11.90;88.32;101960.97;4968528;28;20081;-51
2022/05/21 04:37:05;;;;;;;34.05;13.88;;;;;;;11.87;88.51;101955.09;4964854;28;20029;-51
2022/05/21 04:39:30;;;;;;;27.20;13.43;;;;;;;11.84;88.52;101952.72;4966605;28;20023;-52
2022/05/21 04:41:56;;;;;;;32.97;13.63;;;;;;;11.86;88.65;101970.25;4969160;28;20022;-53
2022/05/21 04:44:23;;;;;;;34.15;13.50;;;;;;;11.85;88.58;101960.53;4969664;28;20636;-52
2022/05/21 04:46:49;;;;;;;31.35;13.35;;;;;;;11.81;88.58;101959.19;4975227;28;20032;-52
2022/05/21 04:49:14;;;;;;;28.48;13.25;;;;;;;11.77;88.71;101952.47;4968247;28;20031;-53
2022/05/21 04:51:39;;;;;;;27.55;13.18;;;;;;;11.75;88.85;101968.56;4970817;28;20050;-51
2022/05/21 04:54:05;;;;;;;27.50;13.15;;;;;;;11.77;89.16;101961.28;4970410;28;20030;-53
2022/05/21 04:56:31;;;;;;;33.97;12.13;;;;;;;11.76;88.95;101962.28;4970283;28;20030;-52
2022/05/21 04:58:57;;;;;;;30.73;12.15;;;;;;;11.77;89.09;101963.09;4967655;28;20031;-52
2022/05/21 05:01:23;;;;;;;25.27;11.48;;;;;;;11.75;89.10;101968.56;4969063;28;20093;-52
2022/05/21 05:03:49;;;;;;;22.75;10.90;;;;;;;11.75;89.50;101973.06;4970014;28;20392;-53
2022/05/21 05:06:14;;;;;;;28.40;11.60;;;;;;;11.78;89.27;101978.13;4969792;28;20030;-52
2022/05/21 05:08:39;;;;;;;30.02;11.35;;;;;;;11.77;89.18;101984.41;4969482;28;20085;-51
2022/05/21 05:11:04;;;;;;;24.52;10.57;;;;;;;11.77;89.41;101987.91;4965945;28;20373;-53
2022/05/21 05:13:30;;;;;;;31.45;10.82;;;;;;;11.80;89.70;101978.81;4966613;28;20031;-51
2022/05/21 05:15:55;;;;;;;29.65;11.25;;;;;;;11.83;89.88;101988.31;4966413;28;20042;-52
2022/05/21 05:18:27;;;;;;;31.02;11.23;;;;;;;11.85;89.82;101992.50;4963583;28;20069;-51
2022/05/21 05:20:52;;;;;;;32.80;11.45;;;;;;;11.87;89.73;101990.53;4961953;28;20030;-51
2022/05/21 05:23:17;;;;;;;29.75;11.35;;;;;;;11.93;89.69;101994.41;4966023;28;20035;-52
2022/05/21 05:25:43;;;;;;;36.10;11.20;;;;;;;11.94;89.90;101996.94;4967198;28;20085;-52
2022/05/21 05:28:17;;;;;;;29.02;11.00;;;;;;;11.96;89.46;102008.25;4964427;28;20460;-51
2022/05/21 05:30:43;;;;;;;26.30;10.75;;;;;;;11.97;90.12;101998.44;4964925;28;20045;-53
2022/05/21 05:33:08;;;;;;;28.75;10.73;;;;;;;12.00;89.73;102001.66;4964837;28;20027;-50
2022/05/21 05:35:34;;;;;;;33.13;11.10;;;;;;;12.00;89.82;102004.31;4964084;28;20595;-52
2022/05/21 05:38:04;;;;;;;27.95;11.55;;;;;;;12.01;89.80;102005.13;4963454;28;20030;-53
2022/05/21 05:40:30;;;;;;;31.83;11.63;;;;;;;12.04;89.75;102000.34;4966853;28;20065;-51
2022/05/21 05:42:57;;;;;;;32.05;11.40;;;;;;;12.05;89.74;102007.34;4964016;28;20061;-51
2022/05/21 05:45:22;;;;;;;29.85;11.88;;;;;;;12.07;89.41;102009.84;4966028;28;20035;-54
2022/05/21 05:47:48;;;;;;;30.40;12.07;;;;;;;12.05;89.49;102023.31;4963875;28;20656;-52
2022/05/21 05:50:13;;;;;;;33.58;12.00;;;;;;;12.07;89.73;102017.84;4965411;28;20141;-56
2022/05/21 05:52:39;;;;;;;32.58;12.25;;;;;;;12.10;89.39;102014.88;4963329;28;20114;-54
2022/05/21 05:55:04;;;;;;;31.25;12.25;;;;;;;12.10;89.66;102010.38;4968032;28;20483;-51
2022/05/21 05:57:29;;;;;;;28.45;11.95;;;;;;;12.09;89.30;102015.88;4971211;28;20035;-52
2022/05/21 05:59:56;;;;;;;31.20;12.77;;;;;;;12.14;89.71;102012.75;4970771;28;20033;-51
2022/05/21 06:05:11;;;;;;;36.33;12.27;;;;;;;12.19;89.49;102018.47;4971429;28;20567;-51
2022/05/21 06:07:47;;;;;;;30.75;12.55;;;;;;;12.23;89.43;102022.50;4967728;28;20023;-53
2022/05/21 06:10:16;;;;;;;33.95;12.02;;;;;;;12.24;89.24;102034.81;4967145;28;20032;-51
2022/05/21 06:12:42;;;;;;;33.08;12.20;;;;;;;12.33;89.25;102024.09;4963902;28;20031;-52
2022/05/21 06:15:09;;;;;;;29.50;10.73;;;;;;;12.36;89.23;102022.94;4965892;28;20027;-51
2022/05/21 06:17:34;;;;;;;24.55;10.80;;;;;;;12.39;88.75;102020.81;4964485;28;20117;-51
2022/05/21 06:20:00;;;;;;;33.65;10.75;;;;;;;12.45;88.46;102019.38;4967274;28;20059;-54
2022/05/21 06:22:27;;;;;;;29.33;10.13;;;;;;;12.50;88.37;102025.06;4964516;28;20034;-52
2022/05/21 06:24:53;;;;;;;31.98;10.90;;;;;;;12.54;88.05;102028.25;4967850;28;20022;-51
2022/05/21 06:27:18;;;;;;;27.98;10.85;;;;;;;12.58;88.47;102026.97;4969760;28;20042;-51
2022/05/21 06:29:45;;;;;;;28.58;10.60;;;;;;;12.58;88.06;102029.63;4970413;28;20058;-53
2022/05/21 06:32:10;;;;;;;30.63;10.95;;;;;;;12.58;87.89;102033.13;4968476;28;20035;-52
2022/05/21 06:34:37;;;;;;;31.67;11.27;;;;;;;12.60;87.69;102031.16;4971293;28;20042;-54
2022/05/21 06:37:04;;;;;;;26.70;10.95;;;;;;;12.62;87.82;102041.66;4969335;28;20015;-51
2022/05/21 06:39:34;;;;;;;28.65;11.40;;;;;;;12.63;87.45;102038.81;4972115;28;20027;-51
2022/05/21 06:41:59;;;;;;;;;;;;;;;12.66;87.83;102043.84;4973390;28;20023;-51
2022/05/21 06:44:25;;;;;;;24.92;11.68;;;;;;;12.67;87.74;102042.84;4971315;28;19921;-51
2022/05/21 06:46:51;;;;;;;35.80;11.65;;;;;;;12.70;87.30;102041.69;4972232;28;20033;-53
2022/05/21 06:49:17;;;;;;;30.65;11.55;;;;;;;12.74;86.98;102050.25;4965597;28;20026;-54
2022/05/21 06:51:43;;;;;;;27.20;11.55;;;;;;;12.78;86.63;102070.28;4980554;28;20614;-52
2022/05/21 06:54:09;;;;;;;29.38;11.55;;;;;;;12.85;86.66;102063.31;4969331;28;20027;-51
2022/05/21 06:56:34;;;;;;;29.58;11.38;;;;;;;12.92;86.89;102057.19;4972253;28;20117;-52
2022/05/21 06:58:59;;;;;;;30.00;11.30;;;;;;;12.97;86.40;102062.06;4971950;28;20066;-54
2022/05/21 07:01:24;;;;;;;26.45;9.23;;;;;;;13.02;85.84;102055.28;4972308;28;20420;-52
2022/05/21 07:03:50;;;;;;;24.88;9.40;;;;;;;13.03;85.05;102051.63;4971319;28;20026;-54
2022/05/21 07:08:59;;;;;;;32.28;9.27;;;;;;;13.08;84.00;102052.97;4968120;28;20061;-52
2022/05/21 07:11:24;;;;;;;24.30;8.32;;;;;;;13.20;84.13;102076.59;4969104;28;20527;-53
2022/05/21 07:13:50;;;;;;;33.05;8.32;;;;;;;13.29;84.12;102069.47;4972153;28;20027;-53
2022/05/21 07:16:15;;;;;;;19.92;8.05;;;;;;;13.34;83.16;102059.19;4971415;28;20019;-52
2022/05/21 07:18:40;;;;;;;23.50;7.75;;;;;;;13.39;82.83;102085.38;4965066;28;20075;-54
2022/05/21 07:21:10;;;;;;;27.15;8.05;;;;;;;13.41;82.97;102080.72;4962795;28;20034;-54
2022/05/21 07:23:36;;;;;;;22.83;7.13;;;;;;;13.47;82.70;102085.41;4962725;28;20038;-56
2022/05/21 07:26:01;;;;;;;26.10;7.25;;;;;;;13.47;82.03;102085.41;4969766;28;20188;-52
2022/05/21 07:28:26;;;;;;;21.45;7.30;;;;;;;13.53;81.82;102085.59;4967197;28;20445;-54
2022/05/21 07:30:52;;;;;;;20.98;6.90;;;;;;;13.58;80.90;102093.13;4965890;28;20121;-55
2022/05/21 07:33:20;;;;;;;19.42;5.97;;;;;;;13.59;79.81;102113.50;4967316;28;20027;-55
2022/05/21 07:35:45;;;;;;;21.23;6.22;;;;;;;13.66;80.12;102100.34;4971114;28;20030;-54
2022/05/21 07:38:14;;;;;;;23.45;6.80;;;;;;;13.63;79.99;102102.34;4962021;28;20074;-52
2022/05/21 07:40:40;;;;;;;19.27;5.75;;;;;;;13.68;79.36;102091.19;4966289;28;20022;-54
2022/05/21 07:43:27;;;;;;;22.77;5.97;;;;;;;13.75;79.75;102100.22;4971053;28;20031;-54
2022/05/21 07:45:55;;;;;;;19.95;6.72;;;;;;;13.80;79.99;102092.56;4971462;28;20023;-55
2022/05/21 07:48:21;;;;;;;29.80;7.97;;;;;;;13.90;80.64;102103.97;4971050;28;20027;-53
2022/05/21 07:50:53;;;;;;;20.90;7.45;;;;;;;13.87;79.70;102101.59;4970420;28;20026;-54
2022/05/21 07:53:24;;;;;;;24.10;8.52;;;;;;;13.80;79.45;102100.56;4971837;28;20125;-55
2022/05/21 07:55:52;;;;;;;25.50;8.38;;;;;;;13.83;79.67;102105.59;4966327;28;20515;-53
2022/05/21 07:58:19;;;;;;;17.17;7.43;;;;;;;13.84;78.96;102103.75;4970512;28;20374;-54
2022/05/21 08:00:44;;;;;;;19.10;7.53;;;;;;;13.89;79.28;102112.97;4971788;28;20015;-54
2022/05/21 08:03:10;;;;;;;20.40;6.88;;;;;;;13.99;79.65;102101.31;4963336;28;20535;-53
2022/05/21 08:05:38;;;;;;;23.80;7.20;;;;;;;14.07;78.97;102099.50;4964366;28;20042;-55
2022/05/21 08:08:04;;;;;;;21.40;7.47;;;;;;;14.08;79.34;102101.19;4959286;28;20038;-56
2022/05/21 08:10:30;;;;;;;23.63;7.50;;;;;;;14.24;79.22;102106.56;4960927;28;20077;-56
2022/05/21 08:12:56;;;;;;;19.35;5.40;;;;;;;14.43;78.51;102109.97;4960364;28;20027;-53
2022/05/21 08:15:22;;;;;;;15.07;5.50;;;;;;;14.56;78.07;102116.50;4968714;28;20033;-53
2022/05/21 08:17:48;;;;;;;19.20;6.30;;;;;;;14.51;77.10;102118.03;4963669;28;20038;-56
2022/05/21 08:20:14;;;;;;;17.73;6.97;;;;;;;14.45;76.54;102114.13;4967351;28;20026;-53
2022/05/21 08:28:09;;;;;;;19.95;6.50;;;;;;;14.56;76.49;102111.16;4976980;28;20117;-54
2022/05/21 08:30:35;;;;;;;21.15;7.20;;;;;;;14.55;77.16;102130.03;4970633;28;20034;-54
2022/05/21 08:33:04;;;;;;;22.42;8.48;;;;;;;14.53;77.03;102119.53;4971091;28;20035;-55
2022/05/21 08:35:30;;;;;;;27.65;7.50;;;;;;;14.68;78.12;102113.50;4970755;28;20015;-54
2022/05/21 08:37:56;;;;;;;17.58;5.60;;;;;;;14.87;77.72;102110.50;4969041;28;20435;-53
2022/05/21 08:40:22;;;;;;;20.45;5.70;;;;;;;14.97;76.33;102113.84;4970272;28;20034;-53
2022/05/21 08:42:58;;;;;;;14.50;5.40;;;;;;;15.06;75.54;102112.00;4967526;28;20101;-54
2022/05/21 08:45:31;;;;;;;15.10;5.25;;;;;;;15.11;74.81;102137.25;4961049;28;20492;-55
2022/05/21 08:48:02;;;;;;;18.50;5.22;;;;;;;15.12;74.28;102132.75;4959778;28;20356;-54
2022/05/21 08:50:33;;;;;;;20.90;5.80;;;;;;;15.27;75.03;102122.16;4966574;28;20629;-56
2022/05/21 08:53:04;;;;;;;18.60;5.43;;;;;;;15.43;75.19;102114.94;4963522;28;20424;-53
2022/05/21 08:55:41;;;;;;;20.05;5.90;;;;;;;15.64;75.59;102110.91;4961607;28;20026;-54
2022/05/21 08:58:16;;;;;;;17.15;5.00;;;;;;;15.63;74.54;102120.78;4962106;28;20022;-54
2022/05/21 09:00:44;;;;;;;19.45;5.32;;;;;;;15.63;74.00;102115.44;4961889;28;20030;-55
2022/05/21 09:03:14;;;;;;;18.42;5.22;;;;;;;15.62;72.93;102116.44;4966026;28;20089;-54
2022/05/21 09:05:45;;;;;;;16.95;3.90;;;;;;;15.76;72.79;102102.31;4963487;28;20034;-54
2022/05/21 09:08:32;;;;;;;15.80;4.50;;;;;;;15.89;72.33;102108.94;4965162;28;20578;-54
2022/05/21 09:11:03;;;;;;;15.77;3.83;;;;;;;16.01;72.82;102100.38;4967321;28;20620;-55
2022/05/21 09:14:01;;;;;;;13.40;3.72;;;;;;;15.99;70.93;102109.59;4962605;28;20037;-55
2022/05/21 09:19:11;;;;;;;11.70;3.60;;;;;;;15.80;70.54;102098.28;4967039;28;20057;-54
2022/05/21 09:21:42;;;;;;;14.68;4.80;;;;;;;15.80;71.31;102100.13;4960879;28;20026;-55
2022/05/21 09:24:08;;;;;;;16.35;4.32;;;;;;;15.78;71.73;102107.50;4960393;28;20034;-53
2022/05/21 09:26:49;;;;;;;14.63;4.32;;;;;;;15.78;71.54;102105.66;4966021;28;20073;-55
2022/05/21 09:29:25;;;;;;;18.05;4.75;;;;;;;15.69;70.58;102120.09;4968690;28;20038;-55
2022/05/21 09:31:53;;;;;;;12.45;4.25;;;;;;;15.65;70.07;102113.41;4969210;28;20122;-56
2022/05/21 09:34:27;;;;;;;17.25;4.38;;;;;;;15.88;71.26;102109.97;4969569;28;20035;-52
2022/05/21 09:36:53;;;;;;;10.60;3.53;;;;;;;16.05;71.20;102101.69;4966971;28;20030;-52
2022/05/21 09:39:30;;;;;;;9.07;2.90;;;;;;;16.09;69.54;102124.44;4969615;28;20038;-54
2022/05/21 09:42:07;;;;;;;15.45;3.58;;;;;;;16.07;69.18;102114.91;4969813;28;20030;-56
2022/05/21 09:47:25;;;;;;;17.40;3.92;;;;;;;15.87;68.82;102130.56;4967820;28;20125;-55
2022/05/21 09:50:24;;;;;;;11.05;3.58;;;;;;;15.85;68.29;102131.75;4963943;28;20546;-55
2022/05/21 09:52:50;;;;;;;15.20;3.63;;;;;;;15.89;68.35;102127.69;4956482;28;20681;-55
2022/05/21 09:55:28;;;;;;;16.88;4.10;;;;;;;16.03;68.44;102127.81;4961005;28;20027;-56
2022/05/21 09:57:54;;;;;;;11.18;3.10;;;;;;;16.16;68.32;102131.75;4962813;28;20031;-54
2022/05/21 10:00:28;;;;;;;15.15;3.80;;;;;;;16.06;68.04;102135.50;4969382;28;20019;-55
2022/05/21 10:02:56;;;;;;;13.13;3.42;;;;;;;15.91;67.83;102128.41;4963574;28;20037;-55
2022/05/21 10:05:38;;;;;;;13.50;4.05;;;;;;;16.05;68.79;102143.72;4961182;28;20035;-54
2022/05/21 10:10:59;;;;;;;17.95;4.07;;;;;;;16.28;68.83;102123.16;4960576;28;20133;-54
2022/05/21 10:13:34;;;;;;;16.15;3.85;;;;;;;16.37;68.41;102124.78;4959900;28;20074;-54
2022/05/21 10:16:21;;;;;;;13.85;2.97;;;;;;;16.42;68.08;102126.94;4962230;28;20035;-55
2022/05/21 10:19:01;;;;;;;14.20;3.55;;;;;;;16.52;68.49;102124.03;4962141;28;20023;-55
2022/05/21 10:22:04;;;;;;;12.98;3.90;;;;;;;16.54;67.47;102130.03;4964899;28;20031;-55
2022/05/21 10:25:17;;;;;;;16.52;4.10;;;;;;;16.57;67.10;102125.16;4966982;28;20492;-55
2022/05/21 10:28:12;;;;;;;14.20;3.42;;;;;;;16.72;67.84;102122.56;4966652;28;20055;-55
2022/05/21 10:30:58;;;;;;;11.27;3.55;;;;;;;16.59;66.01;102122.28;4968206;28;20031;-55
2022/05/21 10:33:42;;;;;;;14.98;3.80;;;;;;;16.46;66.41;102122.03;4969182;28;20488;-54
2022/05/21 10:36:30;;;;;;;11.23;3.80;;;;;;;16.32;66.92;102120.97;4968593;28;20023;-56
2022/05/21 10:39:19;;;;;;;17.47;4.53;;;;;;;16.11;66.66;102138.50;4969230;28;20088;-55
2022/05/21 10:42:17;;;;;;;14.32;4.25;;;;;;;16.20;67.20;102135.78;4972484;28;20102;-54
2022/05/21 10:45:04;;;;;;;16.98;5.15;;;;;;;16.43;67.14;102150.03;4971333;28;20030;-54
2022/05/21 10:48:18;;;;;;;16.85;5.70;;;;;;;16.50;66.91;102148.34;4965046;28;20034;-53
2022/05/21 10:50:59;;;;;;;17.38;4.82;;;;;;;16.39;67.15;102148.72;4955858;28;20046;-55
2022/05/21 10:53:43;;;;;;;18.83;4.32;;;;;;;16.52;67.75;102140.94;4971026;28;20106;-55
2022/05/21 10:56:11;;;;;;;12.63;4.65;;;;;;;16.58;66.76;102132.19;4971131;28;20062;-55
2022/05/21 10:59:02;;;;;;;12.80;4.03;;;;;;;16.61;66.41;102139.88;4971538;28;20050;-55
2022/05/21 11:01:44;;;;;;;13.05;4.10;;;;;;;16.70;66.84;102146.03;4967266;28;20033;-55
2022/05/21 11:04:35;;;;;;;12.75;3.80;;;;;;;16.85;66.59;102135.38;4971246;28;20026;-56
2022/05/21 11:07:27;;;;;;;11.75;3.40;;;;;;;17.02;66.23;102144.94;4971128;28;20662;-55
2022/05/21 11:10:06;;;;;;;14.27;3.70;;;;;;;17.11;66.36;102138.50;4972396;28;20023;-55
2022/05/21 11:12:53;;;;;;;15.98;3.60;;;;;;;17.25;66.80;102139.53;4970190;28;20511;-56
2022/05/21 11:15:28;;;;;;;19.65;4.22;;;;;;;17.17;66.29;102142.31;4972690;28;20034;-55
2022/05/21 11:17:59;;;;;;;14.88;4.30;;;;;;;17.22;66.53;102154.16;4971689;28;20045;-54
2022/05/21 11:20:43;;;;;;;14.18;2.90;;;;;;;17.41;66.24;102160.88;4971563;28;20018;-53
2022/05/21 11:23:32;;;;;;;11.82;2.75;;;;;;;17.42;65.09;102159.03;4970580;28;20030;-52
2022/05/21 11:26:05;;;;;;;14.68;3.17;;;;;;;17.29;63.72;102155.09;4972011;28;20027;-52
2022/05/21 11:28:40;;;;;;;11.57;2.80;;;;;;;17.33;63.13;102140.28;4965987;28;20066;-55
2022/05/21 11:37:23;;;;;;;13.00;3.00;;;;;;;17.54;62.30;102144.09;4970247;28;20053;-55
2022/05/21 11:39:50;;;;;;;9.73;2.60;;;;;;;17.76;63.27;102145.06;4971594;28;20495;-54
2022/05/21 11:42:18;;;;;;;10.10;2.60;;;;;;;17.80;62.45;102146.38;4971803;28;20039;-57
2022/05/21 11:45:01;;;;;;;9.55;3.03;;;;;;;17.88;61.74;102152.47;4971239;28;20077;-54
2022/05/21 11:47:27;;;;;;;10.07;2.63;;;;;;;17.87;60.46;102148.13;4969408;28;20037;-53
2022/05/21 11:49:59;;;;;;;8.95;2.90;;;;;;;17.97;61.26;102129.03;4971010;28;20027;-55
2022/05/21 11:52:27;;;;;;;12.10;2.70;;;;;;;17.93;60.91;102133.94;4971678;28;20034;-54
2022/05/21 11:54:53;;;;;;;10.82;3.38;;;;;;;17.89;61.12;102146.06;4971677;28;20030;-53
2022/05/21 11:57:35;;;;;;;13.02;3.70;;;;;;;17.95;61.01;102136.44;4969145;28;20053;-54
2022/05/21 12:00:30;;;;;;;8.13;3.00;;;;;;;18.12;61.56;102132.50;4971310;28;20037;-54
2022/05/21 12:02:58;;;;;;;11.82;3.22;;;;;;;18.05;60.28;102125.41;4955552;28;20534;-55